sensor_id;sensor_type;location;lat;lon;timestamp;pressure;altitude;pressure_sealevel;temperature;humidity
44313;BME280;38833;51.142;-0.974;2023-11-19T00:02:02;99295.71;;;28.20;32.64
44313;BME280;38833;51.142;-0.974;2023-11-19T00:04:37;99308.91;;;28.16;32.69
44313;BME280;38833;51.142;-0.974;2023-11-19T00:07:10;99304.09;;;28.10;32.75
44313;BME280;38833;51.142;-0.974;2023-11-19T00:09:43;99302.01;;;27.98;32.85
44313;BME280;38833;51.142;-0.974;2023-11-19T00:12:16;99298.00;;;28.13;33.05
44313;BME280;38833;51.142;-0.974;2023-11-19T00:14:50;99302.73;;;28.13;32.87
44313;BME280;38833;51.142;-0.974;2023-11-19T00:17:23;99303.56;;;27.93;32.75
44313;BME280;38833;51.142;-0.974;2023-11-19T00:19:56;99298.82;;;28.03;32.66
44313;BME280;38833;51.142;-0.974;2023-11-19T00:22:29;99289.13;;;28.07;32.48
44313;BME280;38833;51.142;-0.974;2023-11-19T00:25:03;99298.30;;;27.96;32.58
44313;BME280;38833;51.142;-0.974;2023-11-19T00:27:36;99298.81;;;28.05;32.44
44313;BME280;38833;51.142;-0.974;2023-11-19T00:30:10;99298.28;;;28.47;32.48
44313;BME280;38833;51.142;-0.974;2023-11-19T00:32:43;99294.46;;;28.29;32.40
44313;BME280;38833;51.142;-0.974;2023-11-19T00:35:17;99309.91;;;28.26;32.40
44313;BME280;38833;51.142;-0.974;2023-11-19T00:37:50;99312.99;;;27.88;32.51
44313;BME280;38833;51.142;-0.974;2023-11-19T00:40:23;99312.39;;;27.94;32.39
44313;BME280;38833;51.142;-0.974;2023-11-19T00:42:56;99313.15;;;27.93;32.39
44313;BME280;38833;51.142;-0.974;2023-11-19T00:45:29;99313.81;;;27.93;32.38
44313;BME280;38833;51.142;-0.974;2023-11-19T00:48:03;99327.51;;;28.27;32.48
44313;BME280;38833;51.142;-0.974;2023-11-19T00:50:36;99336.08;;;28.23;32.23
44313;BME280;38833;51.142;-0.974;2023-11-19T00:53:09;99326.94;;;28.06;32.12
44313;BME280;38833;51.142;-0.974;2023-11-19T00:55:43;99330.12;;;27.91;32.32
44313;BME280;38833;51.142;-0.974;2023-11-19T00:58:16;99321.84;;;27.78;32.45
44313;BME280;38833;51.142;-0.974;2023-11-19T01:00:49;99323.11;;;27.53;32.94
44313;BME280;38833;51.142;-0.974;2023-11-19T01:03:23;99318.67;;;27.53;33.03
44313;BME280;38833;51.142;-0.974;2023-11-19T01:05:57;99317.67;;;27.71;32.74
44313;BME280;38833;51.142;-0.974;2023-11-19T01:08:30;99309.82;;;27.69;32.71
44313;BME280;38833;51.142;-0.974;2023-11-19T01:11:04;99316.75;;;27.58;32.78
44313;BME280;38833;51.142;-0.974;2023-11-19T01:13:37;99326.52;;;27.58;32.71
44313;BME280;38833;51.142;-0.974;2023-11-19T01:16:10;99323.45;;;27.57;32.69
44313;BME280;38833;51.142;-0.974;2023-11-19T01:18:43;99320.08;;;27.54;32.68
44313;BME280;38833;51.142;-0.974;2023-11-19T01:21:16;99325.27;;;27.81;32.65
44313;BME280;38833;51.142;-0.974;2023-11-19T01:23:49;99326.63;;;27.58;32.82
44313;BME280;38833;51.142;-0.974;2023-11-19T01:26:23;99318.35;;;27.43;32.67
44313;BME280;38833;51.142;-0.974;2023-11-19T01:28:56;99302.00;;;27.64;32.69
44313;BME280;38833;51.142;-0.974;2023-11-19T01:31:29;99307.04;;;27.37;32.63
44313;BME280;38833;51.142;-0.974;2023-11-19T01:34:02;99312.93;;;27.21;32.78
44313;BME280;38833;51.142;-0.974;2023-11-19T01:36:35;99303.23;;;27.47;32.72
44313;BME280;38833;51.142;-0.974;2023-11-19T01:39:08;99300.63;;;27.71;32.67
44313;BME280;38833;51.142;-0.974;2023-11-19T01:41:42;99298.36;;;27.50;32.58
44313;BME280;38833;51.142;-0.974;2023-11-19T01:44:15;99301.44;;;27.41;32.61
44313;BME280;38833;51.142;-0.974;2023-11-19T01:46:48;99301.26;;;27.31;32.71
44313;BME280;38833;51.142;-0.974;2023-11-19T01:49:21;99297.16;;;27.05;32.63
44313;BME280;38833;51.142;-0.974;2023-11-19T01:51:54;99291.28;;;27.30;32.60
44313;BME280;38833;51.142;-0.974;2023-11-19T01:54:28;99294.77;;;26.94;32.68
44313;BME280;38833;51.142;-0.974;2023-11-19T01:57:02;99299.03;;;27.50;32.60
44313;BME280;38833;51.142;-0.974;2023-11-19T01:59:35;99293.86;;;27.32;32.73
44313;BME280;38833;51.142;-0.974;2023-11-19T02:02:09;99292.79;;;27.12;32.67
44313;BME280;38833;51.142;-0.974;2023-11-19T02:04:42;99298.89;;;27.15;32.60
44313;BME280;38833;51.142;-0.974;2023-11-19T02:07:15;99289.01;;;27.01;32.71
44313;BME280;38833;51.142;-0.974;2023-11-19T02:09:48;99294.71;;;26.83;32.62
44313;BME280;38833;51.142;-0.974;2023-11-19T02:12:21;99291.20;;;27.22;32.68
44313;BME280;38833;51.142;-0.974;2023-11-19T02:14:55;99295.94;;;27.04;32.61
44313;BME280;38833;51.142;-0.974;2023-11-19T02:17:29;99295.06;;;27.20;32.64
44313;BME280;38833;51.142;-0.974;2023-11-19T02:20:03;99293.73;;;26.94;32.64
44313;BME280;38833;51.142;-0.974;2023-11-19T02:22:36;99297.52;;;27.07;32.67
44313;BME280;38833;51.142;-0.974;2023-11-19T02:25:15;99302.73;;;26.96;32.79
44313;BME280;38833;51.142;-0.974;2023-11-19T02:27:53;99301.56;;;26.94;32.76
44313;BME280;38833;51.142;-0.974;2023-11-19T02:30:27;99302.92;;;26.73;32.73
44313;BME280;38833;51.142;-0.974;2023-11-19T02:33:01;99297.23;;;27.00;32.65
44313;BME280;38833;51.142;-0.974;2023-11-19T02:35:34;99289.89;;;26.98;32.66
44313;BME280;38833;51.142;-0.974;2023-11-19T02:38:08;99288.92;;;26.77;32.83
44313;BME280;38833;51.142;-0.974;2023-11-19T02:40:41;99295.31;;;26.96;32.59
44313;BME280;38833;51.142;-0.974;2023-11-19T02:43:15;99287.96;;;26.85;32.68
44313;BME280;38833;51.142;-0.974;2023-11-19T02:45:48;99290.15;;;26.84;32.67
44313;BME280;38833;51.142;-0.974;2023-11-19T02:48:21;99283.28;;;26.85;32.65
44313;BME280;38833;51.142;-0.974;2023-11-19T02:50:54;99278.39;;;26.81;32.67
44313;BME280;38833;51.142;-0.974;2023-11-19T02:53:28;99277.24;;;26.72;32.72
44313;BME280;38833;51.142;-0.974;2023-11-19T02:56:01;99259.21;;;26.82;32.59
44313;BME280;38833;51.142;-0.974;2023-11-19T02:58:34;99261.52;;;26.64;32.75
44313;BME280;38833;51.142;-0.974;2023-11-19T03:01:07;99258.86;;;26.61;32.76
44313;BME280;38833;51.142;-0.974;2023-11-19T03:03:40;99262.00;;;26.65;32.91
44313;BME280;38833;51.142;-0.974;2023-11-19T03:06:13;99239.33;;;26.57;32.70
44313;BME280;38833;51.142;-0.974;2023-11-19T03:08:46;99222.78;;;26.50;32.78
44313;BME280;38833;51.142;-0.974;2023-11-19T03:11:20;99218.87;;;26.57;32.68
44313;BME280;38833;51.142;-0.974;2023-11-19T03:13:53;99213.51;;;26.42;32.79
44313;BME280;38833;51.142;-0.974;2023-11-19T03:16:26;99220.33;;;26.66;32.79
44313;BME280;38833;51.142;-0.974;2023-11-19T03:18:59;99213.10;;;26.44;32.74
44313;BME280;38833;51.142;-0.974;2023-11-19T03:21:32;99215.97;;;26.28;32.87
44313;BME280;38833;51.142;-0.974;2023-11-19T03:24:06;99221.38;;;26.32;32.80
44313;BME280;38833;51.142;-0.974;2023-11-19T03:26:39;99218.06;;;26.47;32.89
44313;BME280;38833;51.142;-0.974;2023-11-19T03:29:12;99227.41;;;26.54;32.78
44313;BME280;38833;51.142;-0.974;2023-11-19T03:31:45;99229.94;;;26.55;32.76
44313;BME280;38833;51.142;-0.974;2023-11-19T03:34:18;99224.69;;;26.38;32.87
44313;BME280;38833;51.142;-0.974;2023-11-19T03:36:51;99223.53;;;26.30;32.97
44313;BME280;38833;51.142;-0.974;2023-11-19T03:39:25;99212.85;;;26.43;32.81
44313;BME280;38833;51.142;-0.974;2023-11-19T03:41:58;99202.97;;;26.40;32.83
44313;BME280;38833;51.142;-0.974;2023-11-19T03:44:31;99224.40;;;26.30;32.89
44313;BME280;38833;51.142;-0.974;2023-11-19T03:47:04;99224.48;;;26.20;32.97
44313;BME280;38833;51.142;-0.974;2023-11-19T03:49:37;99229.99;;;26.26;32.90
44313;BME280;38833;51.142;-0.974;2023-11-19T03:52:10;99228.74;;;26.31;32.82
44313;BME280;38833;51.142;-0.974;2023-11-19T03:54:44;99232.85;;;25.92;32.97
44313;BME280;38833;51.142;-0.974;2023-11-19T03:57:18;99226.27;;;26.18;32.89
44313;BME280;38833;51.142;-0.974;2023-11-19T03:59:51;99222.21;;;26.24;32.81
44313;BME280;38833;51.142;-0.974;2023-11-19T04:02:24;99228.35;;;26.11;32.94
44313;BME280;38833;51.142;-0.974;2023-11-19T04:04:57;99233.40;;;26.17;32.81
44313;BME280;38833;51.142;-0.974;2023-11-19T04:07:30;99241.08;;;26.20;32.82
44313;BME280;38833;51.142;-0.974;2023-11-19T04:10:04;99234.53;;;26.11;32.87
44313;BME280;38833;51.142;-0.974;2023-11-19T04:12:38;99235.74;;;25.83;32.93
44313;BME280;38833;51.142;-0.974;2023-11-19T04:15:11;99226.23;;;26.31;32.90
44313;BME280;38833;51.142;-0.974;2023-11-19T04:17:45;99234.45;;;26.24;32.96
44313;BME280;38833;51.142;-0.974;2023-11-19T04:20:18;99233.58;;;25.96;32.97
44313;BME280;38833;51.142;-0.974;2023-11-19T04:22:51;99230.34;;;26.02;32.87
44313;BME280;38833;51.142;-0.974;2023-11-19T04:25:24;99224.30;;;25.91;32.96
44313;BME280;38833;51.142;-0.974;2023-11-19T04:27:57;99216.64;;;26.21;32.87
44313;BME280;38833;51.142;-0.974;2023-11-19T04:30:30;99223.35;;;26.29;32.80
44313;BME280;38833;51.142;-0.974;2023-11-19T04:33:03;99218.08;;;25.84;32.99
44313;BME280;38833;51.142;-0.974;2023-11-19T04:35:37;99222.18;;;25.91;32.87
44313;BME280;38833;51.142;-0.974;2023-11-19T04:38:10;99211.51;;;26.15;32.88
44313;BME280;38833;51.142;-0.974;2023-11-19T04:40:43;99218.76;;;25.68;32.85
44313;BME280;38833;51.142;-0.974;2023-11-19T04:43:17;99228.28;;;25.77;32.95
44313;BME280;38833;51.142;-0.974;2023-11-19T04:45:50;99219.69;;;25.98;33.02
44313;BME280;38833;51.142;-0.974;2023-11-19T04:48:23;99221.67;;;25.70;32.99
44313;BME280;38833;51.142;-0.974;2023-11-19T04:50:56;99209.75;;;26.04;32.92
44313;BME280;38833;51.142;-0.974;2023-11-19T04:53:30;99200.71;;;26.04;32.93
44313;BME280;38833;51.142;-0.974;2023-11-19T04:56:07;99205.32;;;25.93;32.98
44313;BME280;38833;51.142;-0.974;2023-11-19T04:58:41;99218.92;;;25.97;32.95
44313;BME280;38833;51.142;-0.974;2023-11-19T05:01:14;99203.99;;;26.00;32.91
44313;BME280;38833;51.142;-0.974;2023-11-19T05:03:48;99198.15;;;25.63;32.96
44313;BME280;38833;51.142;-0.974;2023-11-19T05:06:21;99200.20;;;25.92;32.94
44313;BME280;38833;51.142;-0.974;2023-11-19T05:08:54;99189.19;;;25.84;33.06
44313;BME280;38833;51.142;-0.974;2023-11-19T05:11:27;99182.42;;;25.86;33.01
44313;BME280;38833;51.142;-0.974;2023-11-19T05:14:03;99189.35;;;25.72;33.10
44313;BME280;38833;51.142;-0.974;2023-11-19T05:16:37;99180.99;;;25.73;33.07
44313;BME280;38833;51.142;-0.974;2023-11-19T05:19:12;99183.49;;;25.50;33.02
44313;BME280;38833;51.142;-0.974;2023-11-19T05:21:46;99201.09;;;25.76;32.99
44313;BME280;38833;51.142;-0.974;2023-11-19T05:24:19;99206.41;;;25.77;32.99
44313;BME280;38833;51.142;-0.974;2023-11-19T05:26:52;99221.42;;;25.59;32.91
44313;BME280;38833;51.142;-0.974;2023-11-19T05:29:25;99227.69;;;25.77;32.97
44313;BME280;38833;51.142;-0.974;2023-11-19T05:31:58;99231.74;;;25.72;33.01
44313;BME280;38833;51.142;-0.974;2023-11-19T05:34:31;99213.47;;;25.44;33.03
44313;BME280;38833;51.142;-0.974;2023-11-19T05:37:05;99221.76;;;25.66;33.02
44313;BME280;38833;51.142;-0.974;2023-11-19T05:39:38;99218.38;;;25.53;32.90
44313;BME280;38833;51.142;-0.974;2023-11-19T05:42:11;99230.17;;;25.74;32.91
44313;BME280;38833;51.142;-0.974;2023-11-19T05:44:44;99216.47;;;25.67;32.99
44313;BME280;38833;51.142;-0.974;2023-11-19T05:47:17;99216.69;;;25.72;32.95
44313;BME280;38833;51.142;-0.974;2023-11-19T05:49:50;99221.58;;;25.32;33.07
44313;BME280;38833;51.142;-0.974;2023-11-19T05:52:24;99224.44;;;25.71;32.90
44313;BME280;38833;51.142;-0.974;2023-11-19T05:54:57;99231.84;;;25.56;33.05
44313;BME280;38833;51.142;-0.974;2023-11-19T05:57:30;99232.32;;;25.70;32.91
44313;BME280;38833;51.142;-0.974;2023-11-19T06:00:04;99237.00;;;25.57;33.01
44313;BME280;38833;51.142;-0.974;2023-11-19T06:02:37;99235.38;;;25.45;32.85
44313;BME280;38833;51.142;-0.974;2023-11-19T06:05:11;99235.99;;;25.66;32.88
44313;BME280;38833;51.142;-0.974;2023-11-19T06:07:44;99235.28;;;25.41;32.91
44313;BME280;38833;51.142;-0.974;2023-11-19T06:10:17;99237.46;;;25.43;32.83
44313;BME280;38833;51.142;-0.974;2023-11-19T06:12:50;99239.44;;;25.51;33.00
44313;BME280;38833;51.142;-0.974;2023-11-19T06:15:24;99242.25;;;25.64;32.86
44313;BME280;38833;51.142;-0.974;2023-11-19T06:17:57;99240.28;;;25.67;32.82
44313;BME280;38833;51.142;-0.974;2023-11-19T06:20:30;99240.60;;;25.67;32.78
44313;BME280;38833;51.142;-0.974;2023-11-19T06:23:03;99241.49;;;25.63;32.81
44313;BME280;38833;51.142;-0.974;2023-11-19T06:25:36;99245.70;;;25.37;32.80
44313;BME280;38833;51.142;-0.974;2023-11-19T06:28:09;99243.16;;;25.67;32.75
44313;BME280;38833;51.142;-0.974;2023-11-19T06:30:43;99240.28;;;25.55;32.87
44313;BME280;38833;51.142;-0.974;2023-11-19T06:33:16;99248.61;;;25.56;32.85
44313;BME280;38833;51.142;-0.974;2023-11-19T06:35:49;99254.22;;;25.58;32.80
44313;BME280;38833;51.142;-0.974;2023-11-19T06:38:22;99253.27;;;25.56;32.82
44313;BME280;38833;51.142;-0.974;2023-11-19T06:40:55;99251.95;;;25.65;32.73
44313;BME280;38833;51.142;-0.974;2023-11-19T06:43:28;99252.66;;;25.51;32.97
44313;BME280;38833;51.142;-0.974;2023-11-19T06:46:02;99246.41;;;25.11;33.56
44313;BME280;38833;51.142;-0.974;2023-11-19T06:48:35;99248.01;;;25.01;33.77
44313;BME280;38833;51.142;-0.974;2023-11-19T06:51:09;99245.40;;;25.55;33.21
44313;BME280;38833;51.142;-0.974;2023-11-19T06:53:42;99248.41;;;25.66;32.83
44313;BME280;38833;51.142;-0.974;2023-11-19T06:56:20;99246.62;;;25.95;32.61
44313;BME280;38833;51.142;-0.974;2023-11-19T06:58:54;99253.67;;;26.28;32.60
44313;BME280;38833;51.142;-0.974;2023-11-19T07:01:27;99261.19;;;26.26;32.70
44313;BME280;38833;51.142;-0.974;2023-11-19T07:04:00;99259.02;;;26.51;32.50
44313;BME280;38833;51.142;-0.974;2023-11-19T07:06:33;99259.27;;;26.37;32.45
44313;BME280;38833;51.142;-0.974;2023-11-19T07:09:07;99262.09;;;26.56;32.31
44313;BME280;38833;51.142;-0.974;2023-11-19T07:11:40;99260.07;;;26.40;32.33
44313;BME280;38833;51.142;-0.974;2023-11-19T07:14:14;99254.69;;;26.63;32.40
44313;BME280;38833;51.142;-0.974;2023-11-19T07:16:47;99254.07;;;26.55;32.30
44313;BME280;38833;51.142;-0.974;2023-11-19T07:19:20;99253.67;;;27.01;32.10
44313;BME280;38833;51.142;-0.974;2023-11-19T07:21:53;99254.94;;;27.19;31.97
44313;BME280;38833;51.142;-0.974;2023-11-19T07:24:26;99257.23;;;26.69;32.29
44313;BME280;38833;51.142;-0.974;2023-11-19T07:26:59;99257.90;;;27.09;31.95
44313;BME280;38833;51.142;-0.974;2023-11-19T07:29:33;99261.21;;;27.42;31.63
44313;BME280;38833;51.142;-0.974;2023-11-19T07:32:06;99257.50;;;27.40;31.68
44313;BME280;38833;51.142;-0.974;2023-11-19T07:34:39;99257.27;;;27.55;31.54
44313;BME280;38833;51.142;-0.974;2023-11-19T07:37:12;99262.89;;;27.03;31.60
44313;BME280;38833;51.142;-0.974;2023-11-19T07:39:45;99259.67;;;27.50;31.64
44313;BME280;38833;51.142;-0.974;2023-11-19T07:42:19;99267.89;;;27.52;31.64
44313;BME280;38833;51.142;-0.974;2023-11-19T07:44:52;99263.05;;;27.46;31.75
44313;BME280;38833;51.142;-0.974;2023-11-19T07:47:25;99266.52;;;27.17;31.86
44313;BME280;38833;51.142;-0.974;2023-11-19T07:49:58;99264.36;;;26.78;32.01
44313;BME280;38833;51.142;-0.974;2023-11-19T07:52:32;99271.66;;;26.35;32.48
44313;BME280;38833;51.142;-0.974;2023-11-19T07:55:05;99277.98;;;26.96;32.36
44313;BME280;38833;51.142;-0.974;2023-11-19T07:57:38;99273.93;;;26.91;32.45
44313;BME280;38833;51.142;-0.974;2023-11-19T08:00:13;99272.18;;;26.68;32.49
44313;BME280;38833;51.142;-0.974;2023-11-19T08:02:46;99276.25;;;26.82;32.30
44313;BME280;38833;51.142;-0.974;2023-11-19T08:05:19;99273.67;;;26.73;32.12
44313;BME280;38833;51.142;-0.974;2023-11-19T08:07:53;99268.90;;;26.67;32.50
44313;BME280;38833;51.142;-0.974;2023-11-19T08:10:26;99267.42;;;26.74;32.14
44313;BME280;38833;51.142;-0.974;2023-11-19T08:12:59;99261.60;;;26.75;32.37
44313;BME280;38833;51.142;-0.974;2023-11-19T08:15:32;99261.44;;;26.69;32.15
44313;BME280;38833;51.142;-0.974;2023-11-19T08:18:06;99249.52;;;27.00;31.79
44313;BME280;38833;51.142;-0.974;2023-11-19T08:20:39;99249.17;;;27.05;31.71
44313;BME280;38833;51.142;-0.974;2023-11-19T08:23:12;99255.17;;;27.30;31.40
44313;BME280;38833;51.142;-0.974;2023-11-19T08:25:45;99248.70;;;27.54;31.66
44313;BME280;38833;51.142;-0.974;2023-11-19T08:28:18;99247.92;;;27.59;31.63
44313;BME280;38833;51.142;-0.974;2023-11-19T08:30:51;99242.34;;;27.21;31.48
44313;BME280;38833;51.142;-0.974;2023-11-19T08:33:26;99241.73;;;27.26;31.71
44313;BME280;38833;51.142;-0.974;2023-11-19T08:35:59;99235.58;;;27.15;31.79
44313;BME280;38833;51.142;-0.974;2023-11-19T08:38:32;99230.09;;;27.32;31.85
44313;BME280;38833;51.142;-0.974;2023-11-19T08:41:05;99236.02;;;27.18;31.76
44313;BME280;38833;51.142;-0.974;2023-11-19T08:43:39;99241.94;;;26.87;31.82
44313;BME280;38833;51.142;-0.974;2023-11-19T08:46:12;99243.85;;;27.39;31.79
44313;BME280;38833;51.142;-0.974;2023-11-19T08:48:45;99250.46;;;26.90;32.06
44313;BME280;38833;51.142;-0.974;2023-11-19T08:51:18;99246.17;;;27.43;31.73
44313;BME280;38833;51.142;-0.974;2023-11-19T08:53:51;99245.40;;;27.11;31.81
44313;BME280;38833;51.142;-0.974;2023-11-19T08:56:25;99240.45;;;26.89;32.05
44313;BME280;38833;51.142;-0.974;2023-11-19T08:58:58;99236.05;;;27.22;31.90
44313;BME280;38833;51.142;-0.974;2023-11-19T09:01:31;99237.82;;;27.00;32.16
44313;BME280;38833;51.142;-0.974;2023-11-19T09:04:05;99238.79;;;26.57;32.07
44313;BME280;38833;51.142;-0.974;2023-11-19T09:06:38;99234.26;;;26.80;32.10
44313;BME280;38833;51.142;-0.974;2023-11-19T09:09:11;99235.70;;;26.74;32.15
44313;BME280;38833;51.142;-0.974;2023-11-19T09:11:44;99236.71;;;27.13;31.93
44313;BME280;38833;51.142;-0.974;2023-11-19T09:14:17;99233.60;;;26.98;32.08
44313;BME280;38833;51.142;-0.974;2023-11-19T09:16:50;99231.58;;;26.82;32.18
44313;BME280;38833;51.142;-0.974;2023-11-19T09:19:24;99221.21;;;26.49;32.01
44313;BME280;38833;51.142;-0.974;2023-11-19T09:21:57;99226.74;;;27.05;31.92
44313;BME280;38833;51.142;-0.974;2023-11-19T09:24:30;99222.80;;;27.01;31.92
44313;BME280;38833;51.142;-0.974;2023-11-19T09:27:04;99220.85;;;26.94;31.96
44313;BME280;38833;51.142;-0.974;2023-11-19T09:29:37;99207.82;;;27.02;31.86
44313;BME280;38833;51.142;-0.974;2023-11-19T09:32:11;99210.34;;;27.12;31.98
44313;BME280;38833;51.142;-0.974;2023-11-19T09:34:44;99212.33;;;26.92;31.91
44313;BME280;38833;51.142;-0.974;2023-11-19T09:37:17;99209.15;;;26.96;31.88
44313;BME280;38833;51.142;-0.974;2023-11-19T09:39:50;99207.68;;;26.71;31.84
44313;BME280;38833;51.142;-0.974;2023-11-19T09:42:24;99210.14;;;26.83;31.93
44313;BME280;38833;51.142;-0.974;2023-11-19T09:44:58;99211.01;;;26.78;31.94
44313;BME280;38833;51.142;-0.974;2023-11-19T09:47:32;99208.91;;;26.93;31.82
44313;BME280;38833;51.142;-0.974;2023-11-19T09:50:06;99210.20;;;26.79;31.94
44313;BME280;38833;51.142;-0.974;2023-11-19T09:52:39;99211.39;;;26.83;31.87
44313;BME280;38833;51.142;-0.974;2023-11-19T09:55:13;99212.44;;;26.79;31.92
44313;BME280;38833;51.142;-0.974;2023-11-19T09:57:47;99201.34;;;26.70;31.96
44313;BME280;38833;51.142;-0.974;2023-11-19T10:00:22;99204.61;;;26.69;31.96
44313;BME280;38833;51.142;-0.974;2023-11-19T10:02:56;99206.01;;;26.67;32.04
44313;BME280;38833;51.142;-0.974;2023-11-19T10:05:30;99213.83;;;26.52;32.11
44313;BME280;38833;51.142;-0.974;2023-11-19T10:10:52;99214.52;;;26.85;31.99
44313;BME280;38833;51.142;-0.974;2023-11-19T10:13:26;99215.89;;;26.64;31.95
44313;BME280;38833;51.142;-0.974;2023-11-19T10:16:04;99217.90;;;26.62;31.99
44313;BME280;38833;51.142;-0.974;2023-11-19T10:18:45;99230.00;;;26.51;32.06
44313;BME280;38833;51.142;-0.974;2023-11-19T10:21:18;99226.48;;;26.53;32.03
44313;BME280;38833;51.142;-0.974;2023-11-19T10:23:53;99225.61;;;26.49;32.05
44313;BME280;38833;51.142;-0.974;2023-11-19T10:26:27;99215.60;;;26.90;32.25
44313;BME280;38833;51.142;-0.974;2023-11-19T10:29:01;99208.59;;;26.94;32.18
44313;BME280;38833;51.142;-0.974;2023-11-19T10:31:34;99198.16;;;26.60;32.23
44313;BME280;38833;51.142;-0.974;2023-11-19T10:34:25;99213.51;;;26.26;32.29
44313;BME280;38833;51.142;-0.974;2023-11-19T10:36:58;99214.62;;;26.51;32.38
44313;BME280;38833;51.142;-0.974;2023-11-19T10:39:51;99221.40;;;26.22;32.63
44313;BME280;38833;51.142;-0.974;2023-11-19T10:42:25;99220.80;;;26.47;32.58
44313;BME280;38833;51.142;-0.974;2023-11-19T10:44:58;99220.51;;;26.34;32.72
44313;BME280;38833;51.142;-0.974;2023-11-19T10:47:32;99226.62;;;26.18;32.47
44313;BME280;38833;51.142;-0.974;2023-11-19T10:50:08;99224.09;;;26.37;32.47
44313;BME280;38833;51.142;-0.974;2023-11-19T10:52:41;99217.69;;;26.33;32.52
44313;BME280;38833;51.142;-0.974;2023-11-19T10:55:15;99213.34;;;26.52;32.61
44313;BME280;38833;51.142;-0.974;2023-11-19T10:57:53;99215.06;;;26.01;32.81
44313;BME280;38833;51.142;-0.974;2023-11-19T11:00:30;99223.81;;;26.34;32.49
44313;BME280;38833;51.142;-0.974;2023-11-19T11:03:11;99225.01;;;26.19;32.58
44313;BME280;38833;51.142;-0.974;2023-11-19T11:05:49;99222.94;;;26.11;32.63
44313;BME280;38833;51.142;-0.974;2023-11-19T11:08:23;99217.94;;;26.19;32.52
44313;BME280;38833;51.142;-0.974;2023-11-19T11:10:56;99213.61;;;26.18;32.51
44313;BME280;38833;51.142;-0.974;2023-11-19T11:13:30;99217.16;;;26.44;32.55
44313;BME280;38833;51.142;-0.974;2023-11-19T11:16:05;99222.06;;;26.12;32.55
44313;BME280;38833;51.142;-0.974;2023-11-19T11:18:38;99222.52;;;26.13;32.92
44313;BME280;38833;51.142;-0.974;2023-11-19T11:21:15;99222.11;;;26.33;33.38
44313;BME280;38833;51.142;-0.974;2023-11-19T11:24:11;99242.13;;;26.41;33.63
44313;BME280;38833;51.142;-0.974;2023-11-19T11:27:12;99223.85;;;26.09;33.31
44313;BME280;38833;51.142;-0.974;2023-11-19T11:29:58;99201.96;;;26.42;33.88
44313;BME280;38833;51.142;-0.974;2023-11-19T11:32:39;99209.86;;;25.81;33.97
44313;BME280;38833;51.142;-0.974;2023-11-19T11:35:29;99210.17;;;25.96;34.08
44313;BME280;38833;51.142;-0.974;2023-11-19T11:38:07;99218.31;;;25.91;33.58
44313;BME280;38833;51.142;-0.974;2023-11-19T11:40:40;99216.20;;;26.05;33.16
44313;BME280;38833;51.142;-0.974;2023-11-19T11:43:44;99205.85;;;25.96;32.64
44313;BME280;38833;51.142;-0.974;2023-11-19T11:47:22;99201.33;;;26.22;32.41
44313;BME280;38833;51.142;-0.974;2023-11-19T11:49:55;99203.42;;;26.86;31.96
44313;BME280;38833;51.142;-0.974;2023-11-19T11:52:28;99198.41;;;26.67;32.14
44313;BME280;38833;51.142;-0.974;2023-11-19T11:55:05;99197.86;;;26.64;32.35
44313;BME280;38833;51.142;-0.974;2023-11-19T11:57:38;99191.98;;;26.78;32.52
44313;BME280;38833;51.142;-0.974;2023-11-19T12:00:22;99190.02;;;26.54;32.55
44313;BME280;38833;51.142;-0.974;2023-11-19T12:02:56;99190.72;;;26.44;32.51
44313;BME280;38833;51.142;-0.974;2023-11-19T12:05:30;99187.38;;;26.77;32.45
44313;BME280;38833;51.142;-0.974;2023-11-19T12:08:05;99183.43;;;26.51;32.59
44313;BME280;38833;51.142;-0.974;2023-11-19T12:10:45;99180.42;;;26.45;32.66
44313;BME280;38833;51.142;-0.974;2023-11-19T12:13:20;99173.48;;;26.71;32.73
44313;BME280;38833;51.142;-0.974;2023-11-19T12:16:10;99185.03;;;26.46;32.63
44313;BME280;38833;51.142;-0.974;2023-11-19T12:18:43;99183.63;;;26.57;32.98
44313;BME280;38833;51.142;-0.974;2023-11-19T12:21:32;99182.76;;;26.35;32.86
44313;BME280;38833;51.142;-0.974;2023-11-19T12:24:07;99180.39;;;26.45;32.70
44313;BME280;38833;51.142;-0.974;2023-11-19T12:26:40;99181.75;;;26.47;32.81
44313;BME280;38833;51.142;-0.974;2023-11-19T12:29:14;99179.17;;;26.49;32.72
44313;BME280;38833;51.142;-0.974;2023-11-19T12:31:54;99180.42;;;26.79;32.80
44313;BME280;38833;51.142;-0.974;2023-11-19T12:34:27;99169.97;;;26.59;32.91
44313;BME280;38833;51.142;-0.974;2023-11-19T12:37:03;99178.13;;;26.76;32.93
44313;BME280;38833;51.142;-0.974;2023-11-19T12:39:36;99176.17;;;26.33;32.88
44313;BME280;38833;51.142;-0.974;2023-11-19T12:42:10;99168.84;;;26.48;33.04
44313;BME280;38833;51.142;-0.974;2023-11-19T12:44:54;99164.57;;;26.46;33.24
44313;BME280;38833;51.142;-0.974;2023-11-19T12:47:27;99168.01;;;26.47;33.01
44313;BME280;38833;51.142;-0.974;2023-11-19T12:50:00;99167.39;;;26.80;32.88
44313;BME280;38833;51.142;-0.974;2023-11-19T12:52:34;99172.61;;;26.43;32.93
44313;BME280;38833;51.142;-0.974;2023-11-19T12:55:26;99172.94;;;26.42;32.85
44313;BME280;38833;51.142;-0.974;2023-11-19T12:57:59;99165.29;;;26.48;33.01
44313;BME280;38833;51.142;-0.974;2023-11-19T13:00:32;99168.55;;;26.77;32.95
44313;BME280;38833;51.142;-0.974;2023-11-19T13:03:05;99167.92;;;26.51;33.05
44313;BME280;38833;51.142;-0.974;2023-11-19T13:05:38;99169.24;;;26.74;33.19
44313;BME280;38833;51.142;-0.974;2023-11-19T13:08:40;99170.12;;;26.65;32.89
44313;BME280;38833;51.142;-0.974;2023-11-19T13:11:13;99166.34;;;26.76;32.87
44313;BME280;38833;51.142;-0.974;2023-11-19T13:13:55;99168.38;;;26.72;32.96
44313;BME280;38833;51.142;-0.974;2023-11-19T13:16:28;99169.70;;;26.70;32.71
44313;BME280;38833;51.142;-0.974;2023-11-19T13:19:02;99165.90;;;26.87;32.79
44313;BME280;38833;51.142;-0.974;2023-11-19T13:21:35;99174.65;;;26.47;33.06
44313;BME280;38833;51.142;-0.974;2023-11-19T13:24:08;99169.43;;;26.59;33.00
44313;BME280;38833;51.142;-0.974;2023-11-19T13:26:42;99155.25;;;26.50;33.15
44313;BME280;38833;51.142;-0.974;2023-11-19T13:29:15;99158.33;;;26.88;33.10
44313;BME280;38833;51.142;-0.974;2023-11-19T13:31:48;99150.08;;;26.74;33.07